Time;durP1;ratioP1;P1;durP2;ratioP2;P2;SDS_P1;SDS_P2;PMS_P1;PMS_P2;Temp;Humidity;BMP_temperature;BMP_pressure;BME280_temperature;BME280_humidity;BME280_pressure;Samples;Min_cycle;Max_cycle;Signal;HPM_P1;HPM_P2
2023/08/03 00:01:54;;;;;;;18.30;7.25;;;;;;;20.52;100.00;97222.88;5074129;28;20043;-79
2023/08/03 00:04:38;;;;;;;15.60;6.57;;;;;;;20.81;99.86;97229.66;5077439;28;20409;-79
2023/08/03 00:07:22;;;;;;;13.27;6.45;;;;;;;21.29;99.08;97237.22;5078090;28;20119;-79
2023/08/03 00:10:07;;;;;;;14.25;6.60;;;;;;;21.14;97.52;97246.44;5080801;28;20102;-79
2023/08/03 00:12:51;;;;;;;13.63;6.50;;;;;;;21.14;98.59;97233.09;5076961;28;20097;-78
2023/08/03 00:15:35;;;;;;;13.55;6.93;;;;;;;20.82;98.62;97251.75;5076228;28;20410;-80
2023/08/03 00:18:19;;;;;;;15.77;6.70;;;;;;;20.61;100.00;97249.56;5076025;28;20108;-79
2023/08/03 00:21:03;;;;;;;14.68;6.38;;;;;;;20.61;100.00;97249.56;5076335;28;20054;-80
2023/08/03 00:23:47;;;;;;;17.67;6.80;;;;;;;20.70;98.90;97252.28;5080552;28;20124;-79
2023/08/03 00:26:31;;;;;;;17.25;6.45;;;;;;;20.01;100.00;97248.06;5082077;28;20036;-80
2023/08/03 00:29:15;;;;;;;17.65;6.10;;;;;;;19.90;100.00;97264.22;5075947;28;20043;-80
2023/08/03 00:32:00;;;;;;;17.80;6.18;;;;;;;20.83;98.68;97264.00;5078347;28;20090;-80
2023/08/03 00:34:44;;;;;;;8.82;5.78;;;;;;;20.65;97.56;97277.22;5078129;28;20098;-80
2023/08/03 00:37:29;;;;;;;13.93;6.50;;;;;;;20.40;99.21;97276.72;5076234;28;20109;-80
2023/08/03 00:40:14;;;;;;;10.20;5.82;;;;;;;20.21;100.00;97278.75;5083718;28;20492;-80
2023/08/03 00:42:58;;;;;;;20.83;6.65;;;;;;;20.56;99.74;97279.03;5080761;28;20104;-80
2023/08/03 00:45:42;;;;;;;10.57;5.68;;;;;;;20.36;98.88;97286.41;5076615;28;20102;-80
2023/08/03 00:48:26;;;;;;;10.10;5.63;;;;;;;20.43;96.76;97296.66;5080689;28;20124;-80
2023/08/03 00:51:11;;;;;;;16.42;6.35;;;;;;;20.60;96.11;97295.97;5081215;28;20097;-79
2023/08/03 00:53:55;;;;;;;10.20;6.70;;;;;;;20.55;96.18;97296.91;5079088;28;20042;-79
2023/08/03 00:56:41;;;;;;;14.20;6.25;;;;;;;21.00;95.46;97307.84;5079869;28;20039;-80
2023/08/03 00:59:25;;;;;;;13.30;5.63;;;;;;;21.03;94.24;97312.56;5077725;28;20417;-78
2023/08/03 01:02:09;;;;;;;12.13;5.43;;;;;;;20.82;95.76;97313.09;5080664;28;20059;-78
2023/08/03 01:04:54;;;;;;;10.40;5.63;;;;;;;20.95;94.36;97312.22;5079262;28;20075;-78
2023/08/03 01:07:38;;;;;;;10.02;5.97;;;;;;;20.82;94.39;97323.75;5079161;28;20078;-79
2023/08/03 01:10:22;;;;;;;10.38;5.40;;;;;;;20.89;94.84;97315.31;5075668;28;20110;-79
2023/08/03 01:13:06;;;;;;;7.75;5.75;;;;;;;21.20;93.57;97323.34;5079892;28;20093;-78
2023/08/03 01:15:50;;;;;;;13.15;5.63;;;;;;;20.75;94.12;97329.50;5075669;28;20070;-78
2023/08/03 01:18:34;;;;;;;11.88;5.68;;;;;;;21.05;94.17;97329.09;5079030;28;20062;-78
2023/08/03 01:21:20;;;;;;;14.20;5.85;;;;;;;21.03;94.23;97336.56;5081815;28;20120;-78
2023/08/03 01:24:04;;;;;;;9.80;5.38;;;;;;;20.71;93.13;97333.06;5081368;28;20054;-79
2023/08/03 01:26:49;;;;;;;10.95;5.75;;;;;;;20.41;95.10;97347.56;5083453;28;20039;-79
2023/08/03 01:29:33;;;;;;;20.48;6.57;;;;;;;20.26;95.56;97359.38;5083705;28;20040;-79
2023/08/03 01:32:17;;;;;;;13.50;5.85;;;;;;;19.75;96.66;97350.53;5081392;28;20521;-79
2023/08/03 01:35:01;;;;;;;11.07;5.65;;;;;;;20.39;96.08;97349.75;5076193;28;20125;-78
2023/08/03 01:37:45;;;;;;;16.10;5.47;;;;;;;19.96;96.45;97350.16;5084019;28;20035;-78
2023/08/03 01:40:29;;;;;;;13.98;5.45;;;;;;;20.05;96.13;97351.03;5082201;28;20521;-78
2023/08/03 01:43:13;;;;;;;17.65;6.05;;;;;;;20.23;95.55;97362.63;5086608;28;20040;-78
2023/08/03 01:45:57;;;;;;;11.13;6.00;;;;;;;20.84;92.70;97369.59;5083427;28;20097;-79
2023/08/03 01:48:41;;;;;;;7.63;5.57;;;;;;;20.79;92.83;97370.47;5081614;28;20066;-81
2023/08/03 01:51:25;;;;;;;12.07;5.80;;;;;;;20.52;92.86;97382.00;5085254;28;20058;-79
2023/08/03 01:54:10;;;;;;;13.25;5.90;;;;;;;19.86;95.19;97388.38;5081527;28;20105;-78
2023/08/03 01:56:55;;;;;;;10.60;5.85;;;;;;;20.12;93.46;97380.72;5079133;28;20069;-81
2023/08/03 01:59:38;;;;;;;14.60;6.47;;;;;;;19.93;94.31;97388.03;5087285;28;20047;-78
2023/08/03 02:02:23;;;;;;;7.60;5.55;;;;;;;20.21;93.52;97390.66;5079957;28;20562;-78
2023/08/03 02:05:06;;;;;;;10.27;5.72;;;;;;;19.81;95.44;97405.25;5078123;28;20093;-78
2023/08/03 02:07:53;;;;;;;12.55;5.80;;;;;;;20.00;94.47;97415.03;5080965;28;20098;-79
2023/08/03 02:10:37;;;;;;;9.85;5.43;;;;;;;19.97;93.75;97410.31;5081656;28;20065;-79
2023/08/03 02:13:21;;;;;;;11.75;5.60;;;;;;;20.00;94.25;97411.59;5082856;28;20115;-79
2023/08/03 02:16:09;;;;;;;11.10;5.40;;;;;;;19.86;94.50;97423.00;5086076;28;20044;-79
2023/08/03 02:18:53;;;;;;;11.27;5.75;;;;;;;19.77;94.68;97420.22;5081796;28;20124;-80
2023/08/03 02:21:37;;;;;;;8.68;6.25;;;;;;;19.88;94.27;97426.16;5086107;28;20035;-78
2023/08/03 02:24:21;;;;;;;12.52;5.90;;;;;;;19.75;94.26;97433.03;5084429;28;20065;-79
2023/08/03 02:27:05;;;;;;;8.82;5.20;;;;;;;19.39;94.80;97447.78;5084411;28;20509;-79
2023/08/03 02:29:49;;;;;;;9.82;5.90;;;;;;;19.88;94.25;97444.00;5080725;28;20552;-79
2023/08/03 02:32:33;;;;;;;12.63;5.63;;;;;;;20.16;94.10;97447.50;5076373;28;20085;-78
2023/08/03 02:35:16;;;;;;;8.65;5.35;;;;;;;20.12;92.72;97447.28;5077992;28;20042;-81
2023/08/03 02:38:00;;;;;;;10.63;6.13;;;;;;;19.68;93.42;97445.97;5078903;28;20443;-78
2023/08/03 02:40:47;;;;;;;9.35;5.25;;;;;;;20.00;93.55;97444.31;5084812;28;20050;-78
2023/08/03 02:43:31;;;;;;;13.70;5.40;;;;;;;20.46;92.10;97444.50;5083462;28;20509;-79
2023/08/03 02:46:15;;;;;;;14.27;4.80;;;;;;;20.20;92.73;97453.00;5079315;28;20047;-78
2023/08/03 02:49:00;;;;;;;15.85;5.82;;;;;;;20.60;91.59;97461.25;5083687;28;20074;-78
2023/08/03 02:51:44;;;;;;;7.15;4.93;;;;;;;20.36;91.51;97467.59;5083588;28;20075;-78
2023/08/03 02:54:28;;;;;;;9.18;4.72;;;;;;;20.62;90.06;97472.41;5082018;28;20101;-78
2023/08/03 02:57:12;;;;;;;8.43;4.82;;;;;;;20.68;89.22;97462.41;5085290;28;20089;-78
2023/08/03 02:59:56;;;;;;;10.57;5.25;;;;;;;20.35;89.88;97470.59;5084762;28;20051;-78
2023/08/03 03:02:40;;;;;;;10.98;4.85;;;;;;;20.01;90.72;97463.78;5078529;28;20052;-78
2023/08/03 03:05:24;;;;;;;8.32;4.72;;;;;;;19.58;91.46;97481.53;5081309;28;20074;-81
2023/08/03 03:08:08;;;;;;;12.20;5.00;;;;;;;19.75;91.32;97474.84;5079889;28;20132;-79
2023/08/03 03:10:52;;;;;;;8.48;4.95;;;;;;;19.75;90.86;97475.63;5082190;28;20039;-79
2023/08/03 03:13:36;;;;;;;11.75;5.00;;;;;;;19.42;92.26;97486.28;5081275;28;20115;-79
2023/08/03 03:16:25;;;;;;;7.60;4.70;;;;;;;18.93;92.83;97486.47;5081020;28;20043;-80
2023/08/03 03:19:09;;;;;;;9.15;5.00;;;;;;;19.45;91.04;97499.00;5080870;28;20040;-80
2023/08/03 03:21:53;;;;;;;12.30;5.10;;;;;;;19.51;91.31;97497.06;5084827;28;20051;-81
2023/08/03 03:24:37;;;;;;;6.78;4.65;;;;;;;19.58;90.68;97499.34;5085376;28;20505;-80
2023/08/03 03:27:21;;;;;;;7.22;5.07;;;;;;;19.69;89.44;97506.88;5082913;28;20078;-80
2023/08/03 03:30:05;;;;;;;10.05;4.72;;;;;;;19.58;89.39;97508.16;5081526;28;20512;-80
2023/08/03 03:32:50;;;;;;;10.77;5.18;;;;;;;19.70;89.07;97508.44;5080286;28;20093;-80
2023/08/03 03:35:34;;;;;;;7.03;4.85;;;;;;;19.23;89.79;97519.03;5080648;28;20051;-80
2023/08/03 03:38:18;;;;;;;6.25;4.78;;;;;;;19.14;89.65;97515.47;5079680;28;20044;-79
2023/08/03 03:41:01;;;;;;;8.73;4.60;;;;;;;19.56;88.99;97515.63;5078708;28;20102;-80
2023/08/03 03:43:45;;;;;;;5.70;4.60;;;;;;;18.74;90.45;97531.63;5082001;28;20040;-80
2023/08/03 03:46:29;;;;;;;7.80;4.90;;;;;;;18.84;90.42;97533.38;5083206;28;20047;-80
2023/08/03 03:49:13;;;;;;;7.78;4.97;;;;;;;18.79;90.51;97552.06;5082104;28;20410;-80
2023/08/03 03:51:57;;;;;;;8.88;4.95;;;;;;;18.60;90.28;97549.38;5078511;28;20497;-80
2023/08/03 03:54:41;;;;;;;9.32;5.03;;;;;;;18.59;91.28;97551.22;5081581;28;20120;-80
2023/08/03 03:57:25;;;;;;;7.18;5.03;;;;;;;18.65;90.47;97552.72;5081665;28;20120;-79
2023/08/03 04:00:09;;;;;;;8.88;4.72;;;;;;;18.84;90.28;97544.00;5082673;28;20086;-79
2023/08/03 04:02:54;;;;;;;10.73;4.90;;;;;;;19.05;90.05;97554.41;5081438;28;20099;-79
2023/08/03 04:05:38;;;;;;;7.60;4.75;;;;;;;18.82;90.01;97559.44;5078220;28;20039;-79
2023/08/03 04:08:22;;;;;;;7.63;5.30;;;;;;;18.44;90.77;97565.47;5078804;28;20410;-79
2023/08/03 04:11:06;;;;;;;10.13;5.10;;;;;;;18.85;90.22;97561.53;5077818;28;20432;-78
2023/08/03 04:13:50;;;;;;;7.10;4.35;;;;;;;19.03;89.04;97572.50;5076267;28;20437;-79
2023/08/03 04:16:34;;;;;;;6.40;4.80;;;;;;;18.54;90.91;97567.22;5079702;28;20043;-78
2023/08/03 04:19:18;;;;;;;6.93;4.72;;;;;;;18.72;89.77;97583.50;5078241;28;20036;-78
2023/08/03 04:22:03;;;;;;;8.50;5.35;;;;;;;18.27;91.88;97589.81;5085468;28;20038;-79
2023/08/03 04:24:46;;;;;;;7.00;4.68;;;;;;;18.63;90.55;97605.38;5080724;28;20039;-79
2023/08/03 04:27:31;;;;;;;7.45;4.78;;;;;;;18.15;91.67;97616.75;5079800;28;20085;-80
2023/08/03 04:30:14;;;;;;;8.82;4.55;;;;;;;18.02;91.92;97620.84;5078098;28;20039;-80
2023/08/03 04:32:58;;;;;;;8.15;4.65;;;;;;;18.94;90.31;97607.69;5079031;28;20078;-80
2023/08/03 04:35:43;;;;;;;8.45;4.47;;;;;;;19.08;89.57;97620.34;5077205;28;20086;-80
2023/08/03 04:38:26;;;;;;;9.20;5.13;;;;;;;18.68;89.98;97620.47;5079130;28;20038;-80
2023/08/03 04:41:10;;;;;;;11.45;5.40;;;;;;;18.83;89.62;97627.47;5081756;28;20088;-80
2023/08/03 04:43:54;;;;;;;7.32;4.95;;;;;;;19.29;88.83;97641.34;5082641;28;20043;-81
2023/08/03 04:46:38;;;;;;;;;;;;;;;18.81;89.04;97646.41;5075650;28;20516;-79
2023/08/03 04:49:22;;;;;;;7.22;5.55;;;;;;;19.17;88.64;97644.44;5080281;28;19977;-78
2023/08/03 04:52:06;;;;;;;7.18;4.70;;;;;;;18.87;88.96;97644.47;5079217;28;20051;-81
2023/08/03 04:54:51;;;;;;;11.32;5.32;;;;;;;19.51;87.04;97644.22;5079609;28;20400;-79
2023/08/03 04:57:34;;;;;;;5.53;4.38;;;;;;;18.94;88.07;97649.44;5083092;28;20035;-81
2023/08/03 05:00:19;;;;;;;8.73;5.07;;;;;;;19.25;88.24;97652.53;5075769;28;20089;-81
2023/08/03 05:03:02;;;;;;;8.82;4.20;;;;;;;19.01;87.83;97657.09;5077375;28;20063;-81
2023/08/03 05:05:46;;;;;;;7.65;4.55;;;;;;;18.90;87.63;97657.19;5080239;28;20112;-81
2023/08/03 05:08:30;;;;;;;5.50;4.05;;;;;;;18.49;89.24;97663.72;5075527;28;20403;-80
2023/08/03 05:11:14;;;;;;;6.63;4.40;;;;;;;19.54;86.80;97672.94;5079939;28;20079;-80
2023/08/03 05:13:58;;;;;;;6.40;4.20;;;;;;;19.15;86.89;97665.16;5078618;28;20090;-80
2023/08/03 05:16:42;;;;;;;5.93;4.18;;;;;;;18.98;88.06;97671.72;5080074;28;20083;-80
2023/08/03 05:19:26;;;;;;;4.25;3.78;;;;;;;18.66;88.78;97668.59;5082775;28;20098;-80
2023/08/03 05:22:10;;;;;;;5.90;4.43;;;;;;;18.69;88.45;97685.84;5086690;28;20098;-80
2023/08/03 05:24:54;;;;;;;11.18;4.82;;;;;;;18.84;88.08;97671.59;5084827;28;20040;-79
2023/08/03 05:27:38;;;;;;;7.47;4.20;;;;;;;19.10;87.91;97682.00;5084828;28;20047;-80
2023/08/03 05:30:22;;;;;;;8.70;4.30;;;;;;;19.37;87.17;97693.91;5083291;28;20505;-80
2023/08/03 05:33:07;;;;;;;4.43;3.75;;;;;;;19.01;88.00;97689.00;5082644;28;20116;-80
2023/08/03 05:35:51;;;;;;;4.97;3.97;;;;;;;19.10;86.46;97695.28;5078395;28;20043;-81
2023/08/03 05:38:34;;;;;;;7.75;3.97;;;;;;;18.87;88.28;97697.66;5079797;28;20040;-82
2023/08/03 05:41:22;;;;;;;4.75;3.92;;;;;;;19.06;88.47;97699.56;5086693;28;20120;-81
2023/08/03 05:44:10;;;;;;;5.47;4.45;;;;;;;19.93;86.73;97699.56;5085726;28;20093;-80
2023/08/03 05:46:55;;;;;;;8.25;4.20;;;;;;;20.55;84.37;97698.59;5081350;28;20063;-80
2023/08/03 05:49:39;;;;;;;7.72;3.83;;;;;;;20.64;84.45;97704.03;5085035;28;20046;-79
2023/08/03 05:52:23;;;;;;;4.93;3.95;;;;;;;20.83;83.42;97698.66;5084361;28;20511;-80
2023/08/03 05:55:11;;;;;;;5.82;3.88;;;;;;;20.21;84.33;97702.34;5079199;28;20039;-80
2023/08/03 05:57:56;;;;;;;5.45;4.55;;;;;;;19.88;85.89;97702.28;5081857;28;20035;-79
2023/08/03 06:00:41;;;;;;;7.43;3.78;;;;;;;20.84;83.90;97713.59;5084465;28;20093;-79
2023/08/03 06:03:26;;;;;;;5.88;3.78;;;;;;;20.66;83.96;97715.19;5083719;28;20046;-79
2023/08/03 06:06:13;;;;;;;6.15;4.25;;;;;;;20.48;83.24;97727.50;5085067;28;20094;-80
2023/08/03 06:08:58;;;;;;;6.18;4.05;;;;;;;20.88;83.75;97727.09;5083463;28;20171;-80
2023/08/03 06:11:42;;;;;;;8.27;3.95;;;;;;;21.21;82.62;97733.13;5084632;28;20062;-80
2023/08/03 06:14:26;;;;;;;8.38;4.28;;;;;;;20.73;82.05;97730.81;5082719;28;20135;-80
2023/08/03 06:17:11;;;;;;;6.05;3.78;;;;;;;21.03;82.65;97728.69;5084862;28;20505;-81
2023/08/03 06:19:55;;;;;;;5.90;4.00;;;;;;;21.10;81.64;97729.09;5081494;28;20562;-80
2023/08/03 06:22:39;;;;;;;4.90;4.03;;;;;;;20.83;83.22;97735.97;5082803;28;20131;-80
2023/08/03 06:25:23;;;;;;;4.40;3.63;;;;;;;20.41;83.35;97749.97;5086310;28;20402;-82
2023/08/03 06:28:10;;;;;;;4.13;3.72;;;;;;;20.77;83.09;97758.47;5082618;28;20075;-80
2023/08/03 06:30:54;;;;;;;7.05;4.28;;;;;;;21.03;83.67;97758.84;5082218;28;20554;-80
2023/08/03 06:33:38;;;;;;;8.07;3.97;;;;;;;21.30;81.83;97769.81;5087069;28;20093;-81
2023/08/03 06:36:26;;;;;;;5.35;3.95;;;;;;;20.51;82.87;97766.91;5077086;28;20043;-80
2023/08/03 06:39:10;;;;;;;6.85;4.10;;;;;;;20.57;83.72;97780.94;5084359;28;20043;-80
2023/08/03 06:41:55;;;;;;;6.35;4.03;;;;;;;20.78;83.29;97782.19;5085819;28;20097;-80
2023/08/03 06:44:39;;;;;;;5.15;3.72;;;;;;;20.93;82.52;97775.81;5082930;28;20172;-81
2023/08/03 06:47:26;;;;;;;6.32;3.92;;;;;;;20.37;82.81;97786.28;5082057;28;20131;-80
2023/08/03 06:50:10;;;;;;;5.50;3.40;;;;;;;21.16;81.87;97791.94;5079400;28;20051;-81
2023/08/03 06:52:56;;;;;;;3.53;3.22;;;;;;;21.32;81.78;97789.81;5076151;28;20059;-78
2023/08/03 06:55:40;;;;;;;4.93;3.65;;;;;;;21.46;81.54;97799.66;5076086;28;20509;-79
2023/08/03 06:58:24;;;;;;;3.97;3.65;;;;;;;21.42;80.62;97804.03;5077836;28;20047;-79
2023/08/03 07:01:11;;;;;;;6.97;3.95;;;;;;;21.64;80.36;97806.00;5079865;28;20043;-79
2023/08/03 07:03:55;;;;;;;6.07;3.92;;;;;;;20.95;81.52;97808.31;5079661;28;20039;-79
2023/08/03 07:06:40;;;;;;;4.80;3.70;;;;;;;21.42;81.20;97822.72;5083656;28;20075;-80
2023/08/03 07:09:25;;;;;;;3.95;3.55;;;;;;;21.53;80.72;97827.56;5085585;28;20055;-80
2023/08/03 07:12:10;;;;;;;7.00;4.43;;;;;;;21.06;80.63;97832.94;5076661;28;20047;-81
2023/08/03 07:14:55;;;;;;;5.25;4.03;;;;;;;21.04;81.19;97842.34;5077549;28;20074;-81
2023/08/03 07:17:42;;;;;;;6.00;4.00;;;;;;;21.04;81.48;97853.00;5076137;28;20101;-83
2023/08/03 07:20:26;;;;;;;4.63;3.53;;;;;;;21.10;80.58;97849.94;5080234;28;20398;-84
2023/08/03 07:23:10;;;;;;;5.05;3.55;;;;;;;21.91;80.07;97847.16;5081830;28;20119;-82
2023/08/03 07:25:55;;;;;;;4.07;3.67;;;;;;;22.01;79.66;97856.84;5081205;28;20402;-81
2023/08/03 07:28:39;;;;;;;4.22;3.78;;;;;;;22.59;77.85;97855.31;5082095;28;20044;-79
2023/08/03 07:31:25;;;;;;;5.25;3.80;;;;;;;22.34;77.94;97854.78;5076301;28;20046;-79
2023/08/03 07:34:09;;;;;;;5.13;3.63;;;;;;;23.36;77.16;97866.06;5082968;28;20047;-83
2023/08/03 07:36:55;;;;;;;4.30;3.85;;;;;;;23.28;75.67;97868.69;5077886;28;20039;-81
2023/08/03 07:39:39;;;;;;;4.93;3.38;;;;;;;23.80;74.16;97871.59;5081884;28;20046;-80
2023/08/03 07:42:23;;;;;;;3.85;3.00;;;;;;;23.94;73.37;97873.34;5073785;28;20047;-81
2023/08/03 07:45:07;;;;;;;3.67;3.30;;;;;;;23.98;72.00;97881.56;5074368;28;20438;-80
2023/08/03 07:47:51;;;;;;;5.28;3.53;;;;;;;23.74;70.54;97880.06;5081408;28;20560;-81
2023/08/03 07:50:35;;;;;;;7.57;3.45;;;;;;;23.75;71.96;97895.81;5081576;28;20066;-79
2023/08/03 07:53:19;;;;;;;4.82;3.53;;;;;;;23.91;71.59;97900.75;5071133;28;20118;-80
2023/08/03 07:56:03;;;;;;;3.83;3.42;;;;;;;24.26;71.93;97900.88;5073566;28;20647;-80
2023/08/03 07:58:50;;;;;;;4.75;3.30;;;;;;;23.81;71.57;97908.00;5078585;28;20119;-80
2023/08/03 08:01:34;;;;;;;4.20;3.80;;;;;;;24.00;72.44;97912.31;5079443;28;20119;-79
2023/08/03 08:04:18;;;;;;;3.80;3.40;;;;;;;23.83;72.50;97910.34;5074239;28;20132;-80
2023/08/03 08:07:02;;;;;;;3.97;3.00;;;;;;;23.16;72.21;97920.88;5077992;28;20054;-80
2023/08/03 08:09:46;;;;;;;5.13;3.13;;;;;;;23.69;72.25;97931.88;5078025;28;20047;-79
2023/08/03 08:12:30;;;;;;;4.07;2.97;;;;;;;23.77;72.84;97933.03;5080435;28;20048;-80
2023/08/03 08:15:14;;;;;;;4.28;3.40;;;;;;;24.30;71.26;97927.84;5081408;28;20094;-80
2023/08/03 08:17:58;;;;;;;3.30;2.78;;;;;;;23.52;71.26;97930.72;5081041;28;20432;-79
2023/08/03 08:20:44;;;;;;;3.80;3.20;;;;;;;23.05;72.12;97930.25;5078421;28;20405;-80
2023/08/03 08:23:29;;;;;;;3.30;3.00;;;;;;;23.60;70.83;97939.88;5079822;28;20089;-80
2023/08/03 08:26:18;;;;;;;8.85;3.53;;;;;;;23.28;72.66;97939.06;5082646;28;20043;-80
2023/08/03 08:29:02;;;;;;;3.63;3.20;;;;;;;22.63;73.78;97941.91;5079946;28;20097;-80
2023/08/03 08:31:47;;;;;;;4.70;3.60;;;;;;;23.00;73.29;97933.84;5078041;28;20047;-80
2023/08/03 08:34:31;;;;;;;5.10;3.22;;;;;;;23.41;72.68;97937.44;5079337;28;20094;-80
2023/08/03 08:37:15;;;;;;;5.90;3.88;;;;;;;23.04;73.25;97937.47;5077472;28;20097;-80
2023/08/03 08:39:59;;;;;;;4.53;3.17;;;;;;;23.38;72.72;97938.84;5075796;28;20047;-80
2023/08/03 08:42:43;;;;;;;4.40;3.50;;;;;;;23.24;73.37;97933.53;5081926;28;20508;-81
2023/08/03 08:45:27;;;;;;;5.22;3.30;;;;;;;23.69;71.69;97937.25;5081339;28;20443;-80
2023/08/03 08:48:11;;;;;;;4.05;3.42;;;;;;;23.57;72.13;97934.34;5077944;28;20067;-80
2023/08/03 08:51:00;;;;;;;5.30;3.42;;;;;;;23.53;71.89;97939.53;5077224;28;20043;-81
2023/08/03 08:53:44;;;;;;;5.82;3.72;;;;;;;23.59;72.76;97948.25;5078580;28;20135;-83
2023/08/03 08:56:28;;;;;;;4.15;3.13;;;;;;;23.66;70.97;97953.94;5073006;28;20050;-81
2023/08/03 08:59:12;;;;;;;4.30;3.75;;;;;;;24.02;70.88;97952.22;5076493;28;20044;-82
2023/08/03 09:01:56;;;;;;;5.18;4.00;;;;;;;24.25;70.72;97956.38;5076809;28;20109;-82
2023/08/03 09:04:41;;;;;;;5.10;3.38;;;;;;;23.75;71.70;97962.78;5076049;28;20090;-82
2023/08/03 09:07:25;;;;;;;5.82;3.42;;;;;;;23.54;70.01;97962.56;5072456;28;20110;-82
2023/08/03 09:10:10;;;;;;;5.10;3.42;;;;;;;23.32;69.92;97960.69;5078692;28;20042;-81
2023/08/03 09:12:54;;;;;;;3.35;3.05;;;;;;;24.13;69.71;97961.56;5077679;28;20121;-81
2023/08/03 09:15:42;;;;;;;3.47;3.17;;;;;;;24.47;68.90;97953.91;5080284;28;20055;-81
2023/08/03 09:18:29;;;;;;;5.07;3.30;;;;;;;24.46;69.13;97963.06;5083061;28;20046;-81
2023/08/03 09:21:15;;;;;;;4.25;3.05;;;;;;;24.22;67.50;97975.78;5080305;28;20497;-80
2023/08/03 09:24:15;;;;;;;4.22;3.25;;;;;;;24.74;65.80;97976.97;5080534;28;20039;-81
2023/08/03 09:26:59;;;;;;;3.03;2.72;;;;;;;25.14;64.51;97975.28;5077734;28;20379;-81
2023/08/03 09:29:43;;;;;;;3.80;2.53;;;;;;;24.19;65.83;97967.59;5080025;28;20070;-81
2023/08/03 09:32:34;;;;;;;3.28;2.55;;;;;;;24.08;64.53;97975.13;5074783;28;20102;-81
2023/08/03 09:35:20;;;;;;;4.35;2.85;;;;;;;24.35;65.61;97974.06;5078058;28;20047;-81
2023/08/03 09:38:04;;;;;;;2.75;2.55;;;;;;;24.53;64.49;97969.53;5076377;28;20560;-80
2023/08/03 09:40:50;;;;;;;3.28;2.88;;;;;;;24.45;64.20;97988.31;5074934;28;20565;-80
2023/08/03 09:43:34;;;;;;;3.35;3.08;;;;;;;25.42;64.80;97964.16;5075589;28;20054;-80
2023/08/03 09:46:18;;;;;;;3.90;3.10;;;;;;;25.38;64.00;97975.53;5077552;28;20054;-81
2023/08/03 09:49:03;;;;;;;4.53;3.33;;;;;;;26.05;63.88;97980.56;5082304;28;20397;-80
2023/08/03 09:51:53;;;;;;;4.32;3.28;;;;;;;25.80;63.76;97983.06;5080419;28;20450;-81
2023/08/03 09:54:45;;;;;;;3.38;3.05;;;;;;;25.94;64.54;97990.91;5078081;28;20101;-81
2023/08/03 09:57:35;;;;;;;6.00;3.00;;;;;;;25.95;64.70;97991.72;5076693;28;20042;-80
2023/08/03 10:00:20;;;;;;;3.35;3.05;;;;;;;25.21;63.39;97997.84;5080060;28;20085;-81
2023/08/03 10:03:12;;;;;;;5.07;2.85;;;;;;;25.22;62.01;98001.31;5082423;28;20044;-81
2023/08/03 10:06:07;;;;;;;2.97;2.50;;;;;;;25.50;62.42;97999.09;5081216;28;20055;-81
2023/08/03 10:08:59;;;;;;;4.35;2.50;;;;;;;24.80;62.06;97996.44;5076770;28;20048;-80
2023/08/03 10:11:48;;;;;;;3.88;2.80;;;;;;;24.52;61.26;98010.06;5077998;28;20039;-81
2023/08/03 10:14:35;;;;;;;3.13;2.60;;;;;;;25.68;59.94;98009.81;5077263;28;20115;-80
2023/08/03 10:17:20;;;;;;;2.65;2.45;;;;;;;25.85;60.80;98002.78;5080468;28;20047;-81
2023/08/03 10:20:07;;;;;;;3.53;2.95;;;;;;;26.05;61.65;98017.44;5080814;28;20055;-80
2023/08/03 10:23:14;;;;;;;3.90;2.58;;;;;;;25.01;60.92;98018.06;5080777;28;20456;-81
2023/08/03 10:26:00;;;;;;;2.97;2.50;;;;;;;24.25;61.69;98018.03;5077028;28;20047;-80
2023/08/03 10:28:46;;;;;;;3.05;2.80;;;;;;;24.61;61.18;98026.19;5082047;28;20062;-80
2023/08/03 10:31:30;;;;;;;2.38;2.17;;;;;;;24.73;59.85;98015.66;5073650;28;20098;-81
2023/08/03 10:34:23;;;;;;;2.35;2.15;;;;;;;24.35;59.86;98032.28;5083296;28;20063;-79
2023/08/03 10:37:12;;;;;;;2.50;2.17;;;;;;;25.17;60.39;98028.31;5084955;28;20078;-80
2023/08/03 10:40:00;;;;;;;2.97;2.55;;;;;;;25.34;60.23;98028.31;5079906;28;20055;-80
2023/08/03 10:43:08;;;;;;;2.63;2.42;;;;;;;24.92;60.02;98028.78;5081396;28;20118;-80
2023/08/03 10:45:52;;;;;;;2.60;2.40;;;;;;;24.91;60.89;98042.53;5083015;28;20050;-80
2023/08/03 10:48:40;;;;;;;2.40;2.20;;;;;;;25.39;59.07;98040.81;5079682;28;20071;-81
2023/08/03 10:51:25;;;;;;;3.13;2.60;;;;;;;25.91;57.75;98039.13;5079228;28;20085;-81
2023/08/03 10:54:09;;;;;;;2.70;2.42;;;;;;;25.87;57.64;98038.22;5078640;28;20043;-81
2023/08/03 10:57:19;;;;;;;3.63;2.17;;;;;;;25.79;58.26;98053.25;5077626;28;20067;-81
2023/08/03 11:00:04;;;;;;;2.63;2.42;;;;;;;25.13;58.59;98054.25;5078807;28;20109;-81
2023/08/03 11:02:49;;;;;;;2.78;2.55;;;;;;;25.81;57.82;98059.88;5081029;28;20109;-80
2023/08/03 11:05:33;;;;;;;4.15;2.58;;;;;;;26.49;58.03;98057.59;5081708;28;20059;-81
2023/08/03 11:08:19;;;;;;;2.78;2.38;;;;;;;25.32;57.79;98067.34;5080194;28;20521;-81
2023/08/03 11:11:03;;;;;;;3.45;2.58;;;;;;;26.02;56.30;98064.56;5081004;28;20123;-80
2023/08/03 11:13:47;;;;;;;2.28;2.13;;;;;;;25.79;56.39;98070.16;5077125;28;20048;-80
2023/08/03 11:16:33;;;;;;;2.88;2.53;;;;;;;26.63;56.10;98070.84;5080746;28;20063;-80
2023/08/03 11:19:17;;;;;;;3.05;2.25;;;;;;;27.60;56.43;98062.84;5080293;28;20039;-81
2023/08/03 11:22:01;;;;;;;3.47;2.38;;;;;;;26.86;56.58;98059.81;5083219;28;20094;-81
2023/08/03 11:24:45;;;;;;;3.20;2.28;;;;;;;26.51;55.71;98066.94;5074717;28;20047;-80
2023/08/03 11:27:30;;;;;;;2.40;2.20;;;;;;;27.18;55.54;98069.06;5070948;28;20131;-80
2023/08/03 11:30:19;;;;;;;2.40;2.20;;;;;;;27.58;54.27;98072.41;5074893;28;20052;-81
2023/08/03 11:33:03;;;;;;;2.70;2.13;;;;;;;28.55;51.37;98069.44;5077157;28;20094;-81
2023/08/03 11:35:47;;;;;;;2.40;2.08;;;;;;;29.47;51.66;98073.66;5081856;28;20043;-81
2023/08/03 11:38:31;;;;;;;2.65;2.45;;;;;;;29.67;49.53;98077.25;5076436;28;20540;-80
2023/08/03 11:41:17;;;;;;;2.90;2.60;;;;;;;29.36;51.44;98081.44;5080299;28;20035;-81
2023/08/03 11:44:03;;;;;;;2.97;2.53;;;;;;;29.49;50.72;98091.13;5077258;28;20051;-80
2023/08/03 11:46:49;;;;;;;2.08;1.98;;;;;;;28.86;50.96;98095.06;5076477;28;20070;-81
2023/08/03 11:49:34;;;;;;;2.30;2.10;;;;;;;29.50;50.19;98086.47;5083079;28;20046;-81
2023/08/03 11:52:19;;;;;;;3.22;2.38;;;;;;;28.42;52.51;98097.53;5079923;28;20408;-81
2023/08/03 11:55:04;;;;;;;2.72;2.47;;;;;;;27.95;52.62;98112.97;5078736;28;20142;-81
2023/08/03 11:58:07;;;;;;;2.20;2.05;;;;;;;27.51;53.19;98106.09;5076338;28;20440;-81
2023/08/03 12:01:04;;;;;;;2.65;2.45;;;;;;;28.20;51.20;98108.44;5078820;28;20047;-81
2023/08/03 12:03:48;;;;;;;2.35;2.20;;;;;;;28.66;51.67;98107.56;5081786;28;20047;-82
2023/08/03 12:06:46;;;;;;;2.42;2.22;;;;;;;28.79;51.01;98106.47;5077099;28;20090;-80
2023/08/03 12:09:39;;;;;;;2.63;2.40;;;;;;;28.80;49.98;98101.84;5079599;28;20075;-81
2023/08/03 12:12:24;;;;;;;3.90;2.50;;;;;;;28.85;50.37;98125.91;5081087;28;20038;-81
2023/08/03 12:15:11;;;;;;;2.40;2.20;;;;;;;29.76;50.23;98114.97;5074582;28;20608;-81
2023/08/03 12:17:55;;;;;;;2.72;2.10;;;;;;;29.10;49.28;98114.28;5078537;28;21390;-81
2023/08/03 12:20:39;;;;;;;2.50;2.30;;;;;;;29.00;48.71;98121.75;5079679;28;20497;-81
2023/08/03 12:23:23;;;;;;;2.72;2.50;;;;;;;29.31;47.98;98124.94;5075708;28;20101;-81
2023/08/03 12:26:07;;;;;;;2.85;2.20;;;;;;;29.15;48.30;98122.94;5079562;28;20093;-81
2023/08/03 12:28:51;;;;;;;2.50;2.30;;;;;;;29.44;47.96;98134.59;5076544;28;20125;-81
2023/08/03 12:31:36;;;;;;;2.42;2.00;;;;;;;29.55;48.99;98124.06;5082764;28;20046;-81
2023/08/03 12:34:20;;;;;;;2.60;2.40;;;;;;;29.22;49.36;98133.19;5074873;28;20433;-81
2023/08/03 12:37:04;;;;;;;2.35;2.15;;;;;;;28.45;49.03;98126.56;5079726;28;20101;-81
2023/08/03 12:39:48;;;;;;;2.58;2.38;;;;;;;27.80;48.65;98141.31;5074974;28;20039;-81
2023/08/03 12:42:32;;;;;;;2.50;2.30;;;;;;;28.32;49.02;98137.34;5079974;28;20116;-81
2023/08/03 12:45:16;;;;;;;3.17;2.40;;;;;;;28.06;50.13;98138.38;5073650;28;20166;-81
2023/08/03 12:48:01;;;;;;;2.40;2.20;;;;;;;28.20;48.54;98146.22;5079886;28;20459;-81
2023/08/03 12:50:45;;;;;;;2.40;2.25;;;;;;;28.87;47.73;98139.84;5077998;28;20043;-81
2023/08/03 12:53:30;;;;;;;2.47;2.28;;;;;;;29.06;47.76;98141.19;5079616;28;20054;-81
2023/08/03 12:56:14;;;;;;;2.70;2.50;;;;;;;29.08;47.28;98153.22;5072419;28;20137;-81